Angoon, AK

7:48 PM AKST on December 25, 2014 (GMT -0900)
Hoonah | Change Station
CLOSE
Current Station
Airport
Location: Hoonah,
Elevation: 0 ft
Nearby Weather Stations

Elev 0 ft 58.11 °N, 135.45 °W | Updated 24 minutes ago

Rain
Rain
34 °F
Feels Like 31 °F
N
4
Wind Variable Wind from Variable

Today
High -- | Low -- °F
--% Chance of Precip.
Yesterday
High -- | Low -- °F
Precip. -- in
8:40 AM 3:16 PM
Waxing Crescent, 22% visible
Pressure 30.06 in
Visibility 10.0 miles
Clouds Few 400 ft
Mostly Cloudy 3800 ft
Overcast 6000 ft
Windchill 31 °F
Dew Point 34 °F
Humidity 100%
Rainfall 0.06 in
Snow Depth Not available.
UV 0 out of 12
Pollen Not available.
Air Quality Not available.
Flu Activity Not available.
SPECI PAOH 260424Z AUTO VRB03KT 10SM RA FEW004 BKN038 OVC060 01/01 A3006 RMK AO2 TSNO BKN V SCT P0000 $

More Conditions Fewer Conditions

Pressure 30.06 in
Visibility 10.0 miles
Clouds Few 400 ft
Mostly Cloudy 3800 ft
Overcast 6000 ft
Windchill 31 °F
Dew Point 34 °F
Humidity 100%
Rainfall 0.06 in
Snow Depth Not available.
UV 0 out of 12
Pollen Not available.
Air Quality Not available.
Flu Activity Not available.
SPECI PAOH 260424Z AUTO VRB03KT 10SM RA FEW004 BKN038 OVC060 01/01 A3006 RMK AO2 TSNO BKN V SCT P0000 $

More Conditions Fewer Conditions

10-Day Weather Forecast

Almanac

Astronomy

Dec. 25, 2014 Rise Set
Actual Time
Civil Twilight
Nautical Twilight
Astronomical Twilight
Moon
Length of Visible Light
Length of Day
Tomorrow will be .
, % of the Moon is Illuminated

Today's Extremes

State Highs State Lows

Community

WunderPhotos

Upload Photos

1,780,537 photos uploaded!

WunderBlogs® & News

Nearby

Air Quality

  Air Quality AQ Index Pollutant
Not available.

Snow Depth

Station Depth Elevation

Earthquake Activity

City Distance Mag. Time & Date
Minimum magnitude displayed is 2.5.

Coastal Water Temperatures

Place Temperature

Nearby Weather Stations